createdAt,value
2018-02-21T00:00:59.534Z,39.77
2018-02-21T00:03:27.014Z,39.67
2018-02-21T00:05:55.222Z,38.77
2018-02-21T00:08:22.697Z,39.23
2018-02-21T00:10:50.154Z,41.57
2018-02-21T00:13:17.710Z,38.73
2018-02-21T00:15:45.167Z,40.67
2018-02-21T00:18:12.653Z,40.63
2018-02-21T00:20:40.102Z,40.47
2018-02-21T00:23:07.581Z,38.97
2018-02-21T00:25:35.026Z,41.20
2018-02-21T00:28:02.498Z,41.03
2018-02-21T00:30:30.714Z,41.40
2018-02-21T00:32:58.183Z,39.43
2018-02-21T00:35:25.626Z,40.70
2018-02-21T00:37:53.082Z,40.17
2018-02-21T00:40:20.554Z,41.33
2018-02-21T00:42:48.770Z,39.63
2018-02-21T00:45:16.226Z,39.73
2018-02-21T00:47:44.477Z,40.13
2018-02-21T00:50:11.948Z,40.57
2018-02-21T00:52:40.898Z,40.73
2018-02-21T00:55:08.367Z,39.27
2018-02-21T00:57:36.594Z,41.07
2018-02-21T01:00:04.863Z,40.50
2018-02-21T01:02:32.310Z,40.77
2018-02-21T01:04:59.778Z,41.73
2018-02-21T01:07:27.234Z,40.23
2018-02-21T01:09:54.702Z,40.07
2018-02-21T01:12:22.152Z,40.33
2018-02-21T01:14:49.610Z,40.23
2018-02-21T01:17:17.070Z,41.10
2018-02-21T01:19:44.535Z,41.63
2018-02-21T01:22:11.978Z,40.97
2018-02-21T01:24:39.429Z,41.07
2018-02-21T01:27:06.990Z,39.53
2018-02-21T01:29:35.222Z,41.17
2018-02-21T01:32:02.682Z,41.33
2018-02-21T01:34:30.133Z,42.37
2018-02-21T01:36:57.590Z,41.00
2018-02-21T01:39:25.047Z,40.30
2018-02-21T01:41:52.507Z,40.60
2018-02-21T01:44:19.971Z,41.17
2018-02-21T01:46:47.447Z,41.27
2018-02-21T01:49:14.897Z,40.87
2018-02-21T01:51:42.362Z,42.23
2018-02-21T01:54:09.818Z,41.47
2018-02-21T01:56:37.294Z,41.43
2018-02-21T01:59:04.804Z,41.63
2018-02-21T02:01:32.262Z,39.60
2018-02-21T02:03:59.723Z,42.47
2018-02-21T02:06:27.175Z,41.50
2018-02-21T02:08:54.650Z,41.13
2018-02-21T02:11:22.102Z,42.63
2018-02-21T02:13:49.566Z,42.83
2018-02-21T02:16:17.038Z,42.80
2018-02-21T02:18:45.261Z,40.10
2018-02-21T02:21:12.719Z,41.57
2018-02-21T02:23:40.226Z,40.57
2018-02-21T02:26:07.703Z,40.77
2018-02-21T02:28:35.182Z,40.60
2018-02-21T02:31:02.634Z,39.37
2018-02-21T02:33:30.103Z,39.33
2018-02-21T02:35:57.583Z,39.97
2018-02-21T02:38:36.876Z,40.47
2018-02-21T02:41:04.338Z,38.60
2018-02-21T02:43:31.804Z,40.73
2018-02-21T02:45:59.281Z,40.17
2018-02-21T02:48:26.755Z,38.83
2018-02-21T02:50:54.247Z,39.70
2018-02-21T02:53:21.691Z,39.47
2018-02-21T02:55:49.166Z,40.17
2018-02-21T02:58:16.620Z,41.40
2018-02-21T03:00:44.094Z,38.50
2018-02-21T03:03:11.732Z,39.57
2018-02-21T03:05:39.189Z,38.87
2018-02-21T03:08:06.641Z,39.83
2018-02-21T03:10:34.094Z,39.80
2018-02-21T03:13:01.563Z,39.93
2018-02-21T03:15:29.034Z,39.90
2018-02-21T03:17:56.525Z,39.77
2018-02-21T03:20:23.981Z,39.63
2018-02-21T03:22:51.453Z,39.80
2018-02-21T03:25:18.913Z,39.10
2018-02-21T03:27:46.371Z,39.80
2018-02-21T03:30:14.027Z,40.10
2018-02-21T03:32:41.474Z,39.83
2018-02-21T03:35:08.935Z,40.50
2018-02-21T03:37:36.397Z,39.03
2018-02-21T03:40:03.850Z,39.73
2018-02-21T03:42:31.318Z,39.07
2018-02-21T03:44:58.777Z,39.47
2018-02-21T03:47:26.242Z,40.40
2018-02-21T03:49:53.703Z,40.53
2018-02-21T03:52:21.166Z,39.77
2018-02-21T03:54:48.614Z,39.77
2018-02-21T03:57:16.099Z,39.27
2018-02-21T03:59:43.554Z,39.93
2018-02-21T04:02:11.011Z,39.63
2018-02-21T04:04:38.462Z,40.43
2018-02-21T04:07:05.926Z,40.73
2018-02-21T04:09:33.378Z,39.47
2018-02-21T04:12:00.836Z,38.50
2018-02-21T04:14:28.294Z,39.60
2018-02-21T04:16:55.754Z,39.13
2018-02-21T04:19:23.207Z,40.37
2018-02-21T04:21:50.674Z,39.37
2018-02-21T04:24:18.194Z,40.20
2018-02-21T04:26:45.656Z,40.07
2018-02-21T04:29:13.113Z,40.77
2018-02-21T04:31:40.557Z,40.77
2018-02-21T04:34:08.022Z,37.33
2018-02-21T04:36:35.478Z,38.47
2018-02-21T04:39:02.953Z,40.27
2018-02-21T04:41:30.397Z,39.27
2018-02-21T04:43:57.874Z,41.23
2018-02-21T04:46:25.321Z,39.90
2018-02-21T04:48:52.794Z,38.73
2018-02-21T04:51:20.306Z,38.67
2018-02-21T04:53:47.777Z,39.37
2018-02-21T04:56:21.587Z,39.40
2018-02-21T04:58:54.669Z,39.03
2018-02-21T05:01:22.894Z,38.77
2018-02-21T05:03:50.387Z,38.17
2018-02-21T05:06:17.839Z,40.13
2018-02-21T05:08:45.298Z,40.13
2018-02-21T05:11:12.754Z,39.30
2018-02-21T05:13:40.210Z,39.03
2018-02-21T05:16:07.673Z,40.40
2018-02-21T05:18:35.130Z,39.50
2018-02-21T05:21:02.614Z,38.33
2018-02-21T05:23:30.072Z,39.63
2018-02-21T05:25:57.530Z,40.20
2018-02-21T05:28:24.982Z,40.20
2018-02-21T05:30:52.438Z,39.07
2018-02-21T05:33:19.890Z,40.07
2018-02-21T05:35:47.359Z,38.60
2018-02-21T05:38:14.815Z,38.97
2018-02-21T05:40:42.280Z,38.33
2018-02-21T05:43:09.783Z,40.90
2018-02-21T05:45:37.280Z,39.50
2018-02-21T05:48:06.342Z,40.17
2018-02-21T05:50:34.002Z,40.00
2018-02-21T05:53:01.493Z,40.50
2018-02-21T05:55:29.024Z,42.20
2018-02-21T05:57:56.511Z,40.90
2018-02-21T06:00:23.967Z,40.87
2018-02-21T06:02:51.478Z,40.93
2018-02-21T06:05:19.050Z,40.10
2018-02-21T06:07:46.570Z,40.20
2018-02-21T06:10:14.115Z,41.17
2018-02-21T06:12:41.595Z,40.83
2018-02-21T06:15:09.070Z,39.90
2018-02-21T06:17:36.544Z,39.77
2018-02-21T06:20:04.009Z,40.93
2018-02-21T06:22:31.480Z,40.83
2018-02-21T06:24:58.933Z,40.50
2018-02-21T06:27:26.448Z,41.33
2018-02-21T06:29:53.878Z,41.43
2018-02-21T06:32:21.522Z,40.90
2018-02-21T06:34:48.978Z,42.70
2018-02-21T06:37:16.449Z,41.43
2018-02-21T06:39:43.895Z,40.73
2018-02-21T06:42:11.787Z,40.40
2018-02-21T06:44:39.238Z,39.90
2018-02-21T06:47:06.687Z,40.83
2018-02-21T06:49:34.157Z,42.83
2018-02-21T06:52:01.636Z,41.50
2018-02-21T06:54:29.094Z,40.63
2018-02-21T06:56:56.549Z,41.37
2018-02-21T06:59:24.014Z,41.47
2018-02-21T07:01:51.498Z,43.10
2018-02-21T07:04:18.953Z,43.80
2018-02-21T07:06:47.166Z,42.47
2018-02-21T07:09:14.633Z,42.23
2018-02-21T07:11:42.090Z,52.87
2018-02-21T07:14:09.553Z,49.93
2018-02-21T07:16:37.051Z,46.20
2018-02-21T07:19:04.542Z,45.50
2018-02-21T07:21:31.974Z,44.20
2018-02-21T07:23:59.434Z,43.13
2018-02-21T07:26:26.881Z,44.30
2018-02-21T07:28:54.371Z,44.40
2018-02-21T07:31:21.826Z,43.73
2018-02-21T07:33:49.303Z,43.13
2018-02-21T07:36:16.766Z,43.17
2018-02-21T07:38:44.217Z,43.70
2018-02-21T07:41:11.682Z,42.93
2018-02-21T07:43:39.133Z,45.07
2018-02-21T07:46:06.630Z,43.27
2018-02-21T07:48:34.854Z,43.07
2018-02-21T07:51:02.324Z,42.53
2018-02-21T07:53:29.778Z,42.37
2018-02-21T07:55:57.245Z,43.47
2018-02-21T07:58:24.699Z,45.40
2018-02-21T08:00:52.157Z,44.47
2018-02-21T08:03:19.610Z,43.00
2018-02-21T08:05:47.065Z,43.03
2018-02-21T08:08:14.727Z,42.93
2018-02-21T08:10:42.214Z,44.30
2018-02-21T08:13:09.665Z,42.37
2018-02-21T08:15:37.118Z,41.53
2018-02-21T08:18:04.595Z,42.23
2018-02-21T08:20:32.045Z,43.07
2018-02-21T08:22:59.522Z,43.40
2018-02-21T08:25:26.974Z,42.43
2018-02-21T08:27:54.422Z,40.80
2018-02-21T08:30:21.965Z,39.07
2018-02-21T08:32:49.447Z,40.43
2018-02-21T08:35:16.894Z,37.33
2018-02-21T08:37:44.352Z,38.70
2018-02-21T08:40:11.822Z,38.20
2018-02-21T08:42:39.295Z,36.43
2018-02-21T08:45:06.749Z,38.53
2018-02-21T08:47:34.218Z,36.20
2018-02-21T08:50:01.853Z,37.33
2018-02-21T08:52:29.317Z,35.97
2018-02-21T08:54:56.770Z,35.70
2018-02-21T08:57:24.226Z,37.27
2018-02-21T08:59:51.679Z,35.63
2018-02-21T09:02:19.140Z,36.23
2018-02-21T09:04:46.594Z,35.43
2018-02-21T09:07:14.038Z,34.80
2018-02-21T09:09:41.494Z,35.10
2018-02-21T09:12:08.942Z,34.87
2018-02-21T09:14:36.411Z,33.07
2018-02-21T09:17:03.870Z,33.37
2018-02-21T09:19:31.326Z,34.07
2018-02-21T09:21:58.781Z,33.03
2018-02-21T09:24:26.267Z,33.93
2018-02-21T09:26:53.758Z,32.93
2018-02-21T09:29:21.230Z,31.83
2018-02-21T09:31:48.678Z,32.33
2018-02-21T09:34:16.143Z,34.33
2018-02-21T09:36:43.583Z,35.17
2018-02-21T09:39:11.149Z,35.93
2018-02-21T09:41:38.606Z,34.87
2018-02-21T09:44:06.084Z,33.33
2018-02-21T09:46:34.298Z,32.57
2018-02-21T09:49:01.767Z,32.07
2018-02-21T09:51:29.217Z,32.00
2018-02-21T09:53:56.698Z,30.87
2018-02-21T09:56:24.178Z,31.33
2018-02-21T09:58:51.630Z,31.20
2018-02-21T10:01:19.231Z,29.73
2018-02-21T10:03:46.698Z,29.90
2018-02-21T10:06:14.160Z,29.97
2018-02-21T10:08:41.610Z,29.93
2018-02-21T10:11:09.070Z,28.77
2018-02-21T10:13:36.526Z,30.47
2018-02-21T10:16:03.990Z,29.10
2018-02-21T10:18:31.448Z,28.10
2018-02-21T10:20:58.912Z,27.83
2018-02-21T10:23:26.365Z,27.83
2018-02-21T10:25:53.821Z,26.93
2018-02-21T10:28:21.274Z,27.30
2018-02-21T10:30:48.768Z,27.90
2018-02-21T10:33:16.219Z,27.80
2018-02-21T10:35:43.698Z,26.77
2018-02-21T10:38:11.145Z,27.53
2018-02-21T10:40:38.622Z,27.17
2018-02-21T10:43:06.107Z,26.47
2018-02-21T10:45:33.562Z,26.07
2018-02-21T10:48:01.036Z,26.83
2018-02-21T10:50:28.482Z,28.40
2018-02-21T10:52:55.949Z,25.43
2018-02-21T10:55:23.444Z,25.53
2018-02-21T10:57:50.894Z,27.00
2018-02-21T11:00:24.106Z,26.17
2018-02-21T11:02:51.562Z,27.23
2018-02-21T11:05:19.019Z,25.80
2018-02-21T11:07:46.478Z,25.33
2018-02-21T11:10:13.924Z,27.23
2018-02-21T11:12:41.391Z,25.57
2018-02-21T11:15:08.846Z,23.87
2018-02-21T11:17:36.316Z,24.40
2018-02-21T11:20:03.768Z,24.77
2018-02-21T11:22:31.250Z,24.47
2018-02-21T11:24:58.718Z,24.67
2018-02-21T11:27:26.175Z,23.13
2018-02-21T11:29:53.630Z,24.70
2018-02-21T11:32:21.098Z,23.67
2018-02-21T11:34:48.558Z,23.67
2018-02-21T11:37:16.006Z,23.33
2018-02-21T11:39:43.509Z,23.60
2018-02-21T11:42:10.953Z,25.70
2018-02-21T11:44:38.414Z,23.67
2018-02-21T11:47:06.004Z,24.03
2018-02-21T11:49:33.455Z,24.80
2018-02-21T11:52:00.905Z,23.47
2018-02-21T11:54:28.383Z,24.30
2018-02-21T11:56:56.299Z,23.80
2018-02-21T11:59:23.769Z,22.27
2018-02-21T12:01:51.287Z,23.37
2018-02-21T12:04:18.834Z,22.87
2018-02-21T12:06:46.290Z,22.93
2018-02-21T12:09:13.757Z,23.33
2018-02-21T12:11:41.209Z,22.30
2018-02-21T12:14:08.674Z,22.70
2018-02-21T12:16:36.130Z,22.10
2018-02-21T12:19:03.602Z,23.47
2018-02-21T12:21:31.082Z,23.20
2018-02-21T12:23:58.590Z,22.33
2018-02-21T12:26:26.054Z,22.60
2018-02-21T12:28:53.518Z,21.37
2018-02-21T12:31:21.743Z,21.43
2018-02-21T12:33:49.202Z,21.53
2018-02-21T12:36:16.657Z,20.60
2018-02-21T12:38:44.124Z,21.73
2018-02-21T12:41:17.270Z,19.23
2018-02-21T12:43:44.739Z,19.97
2018-02-21T12:46:12.204Z,19.73
2018-02-21T12:48:39.657Z,21.27
2018-02-21T12:51:07.116Z,19.70
2018-02-21T12:53:34.558Z,19.10
2018-02-21T12:56:02.177Z,18.23
2018-02-21T12:58:29.630Z,19.47
2018-02-21T13:00:57.082Z,19.60
2018-02-21T13:03:24.534Z,18.30
2018-02-21T13:05:52.031Z,17.97
2018-02-21T13:08:19.457Z,20.07
2018-02-21T13:10:47.137Z,19.50
2018-02-21T13:13:14.664Z,18.97
2018-02-21T13:15:42.115Z,19.47
2018-02-21T13:18:09.727Z,18.93
2018-02-21T13:20:37.185Z,18.17
2018-02-21T13:23:04.638Z,18.40
2018-02-21T13:25:32.096Z,19.20
2018-02-21T13:27:59.557Z,19.47
2018-02-21T13:30:27.010Z,19.43
2018-02-21T13:32:54.473Z,19.37
2018-02-21T13:35:21.931Z,18.50
2018-02-21T13:37:49.499Z,20.03
2018-02-21T13:40:16.893Z,19.80
2018-02-21T13:42:44.354Z,18.90
2018-02-21T13:45:11.850Z,19.03
2018-02-21T13:47:39.311Z,19.20
2018-02-21T13:50:06.789Z,18.63
2018-02-21T13:52:35.054Z,19.30
2018-02-21T13:55:02.526Z,18.40
2018-02-21T13:57:29.974Z,18.83
2018-02-21T13:59:57.423Z,18.50
2018-02-21T14:02:24.892Z,18.77
2018-02-21T14:04:52.347Z,18.60
2018-02-21T14:07:20.658Z,20.57
2018-02-21T14:09:48.118Z,20.47
2018-02-21T14:12:16.117Z,20.83
2018-02-21T14:14:43.531Z,20.83
2018-02-21T14:17:11.001Z,21.83
2018-02-21T14:19:38.455Z,21.13
2018-02-21T14:22:06.754Z,21.33
2018-02-21T14:24:34.219Z,20.33
2018-02-21T14:27:01.666Z,21.73
2018-02-21T14:29:29.126Z,22.77
2018-02-21T14:31:56.582Z,22.13
2018-02-21T14:34:24.063Z,23.47
2018-02-21T14:36:51.530Z,23.07
2018-02-21T14:39:18.982Z,34.93
2018-02-21T14:41:47.217Z,35.47
2018-02-21T14:44:14.794Z,23.17
2018-02-21T14:46:42.246Z,23.57
2018-02-21T14:49:12.173Z,26.83
2018-02-21T14:51:39.622Z,28.93
2018-02-21T14:54:07.100Z,23.00
2018-02-21T14:56:34.548Z,22.10
2018-02-21T14:59:02.022Z,23.37
2018-02-21T15:01:30.298Z,23.70
2018-02-21T15:03:57.775Z,22.70
2018-02-21T15:06:25.235Z,22.83
2018-02-21T15:08:52.695Z,23.60
2018-02-21T15:11:20.157Z,22.40
2018-02-21T15:13:47.612Z,22.83
2018-02-21T15:16:20.815Z,22.77
2018-02-21T15:18:48.271Z,23.03
2018-02-21T15:21:15.758Z,22.40
2018-02-21T15:23:43.210Z,21.67
2018-02-21T15:26:10.670Z,20.93
2018-02-21T15:28:38.124Z,21.73
2018-02-21T15:31:05.596Z,22.50
2018-02-21T15:33:33.053Z,22.17
2018-02-21T15:36:00.508Z,21.40
2018-02-21T15:38:27.962Z,21.67
2018-02-21T15:40:55.418Z,21.40
2018-02-21T15:43:22.875Z,20.67
2018-02-21T15:45:50.362Z,22.03
2018-02-21T15:48:17.822Z,21.07
2018-02-21T15:50:45.331Z,20.43
2018-02-21T15:53:12.819Z,21.47
2018-02-21T15:55:40.265Z,21.60
2018-02-21T15:58:07.729Z,20.27
2018-02-21T16:00:42.118Z,20.23
2018-02-21T16:03:11.150Z,21.33
2018-02-21T16:05:40.345Z,20.93
2018-02-21T16:08:08.936Z,21.17
2018-02-21T16:10:37.446Z,21.43
2018-02-21T16:13:07.001Z,21.43
2018-02-21T16:15:36.084Z,21.87
2018-02-21T16:18:04.505Z,21.97
2018-02-21T16:20:32.697Z,21.80
2018-02-21T16:23:00.895Z,22.27
2018-02-21T16:25:29.272Z,22.17
2018-02-21T16:27:58.020Z,22.23
2018-02-21T16:30:25.954Z,23.23
2018-02-21T16:32:53.826Z,23.00
2018-02-21T16:35:21.411Z,22.83
2018-02-21T16:37:49.973Z,23.03
2018-02-21T16:40:18.876Z,23.00
2018-02-21T16:42:49.349Z,22.80
2018-02-21T16:45:20.561Z,23.37
2018-02-21T16:47:49.090Z,24.03
2018-02-21T16:50:17.252Z,24.30
2018-02-21T16:52:45.043Z,23.37
2018-02-21T16:55:12.874Z,24.13
2018-02-21T16:57:41.178Z,24.67
2018-02-21T17:00:09.466Z,23.50
2018-02-21T17:02:40.585Z,23.87
2018-02-21T17:05:09.079Z,26.03
2018-02-21T17:07:39.072Z,24.30
2018-02-21T17:10:08.527Z,24.47
2018-02-21T17:12:37.810Z,24.70
2018-02-21T17:15:06.562Z,25.67
2018-02-21T17:17:35.162Z,25.57
2018-02-21T17:20:03.592Z,26.20
2018-02-21T17:22:32.903Z,25.47
2018-02-21T17:25:01.584Z,25.33
2018-02-21T17:27:29.575Z,26.77
2018-02-21T17:29:59.052Z,24.77
2018-02-21T17:32:27.691Z,26.07
2018-02-21T17:34:56.359Z,26.37
2018-02-21T17:37:25.785Z,27.57
2018-02-21T17:39:54.322Z,26.17
2018-02-21T17:42:23.099Z,26.77
2018-02-21T17:44:51.209Z,26.33
2018-02-21T17:47:21.434Z,26.00
2018-02-21T17:49:50.733Z,26.30
2018-02-21T17:52:19.754Z,26.93
2018-02-21T17:54:47.809Z,25.63
2018-02-21T17:57:16.084Z,28.00
2018-02-21T17:59:44.665Z,27.20
2018-02-21T18:02:13.563Z,27.07
2018-02-21T18:04:41.724Z,27.40
2018-02-21T18:07:11.162Z,28.50
2018-02-21T18:09:38.898Z,27.33
2018-02-21T18:12:07.198Z,27.40
2018-02-21T18:14:35.785Z,28.70
2018-02-21T18:17:04.091Z,28.07
2018-02-21T18:19:32.107Z,28.70
2018-02-21T18:22:03.489Z,28.23
2018-02-21T18:24:31.501Z,29.27
2018-02-21T18:26:59.445Z,28.17
2018-02-21T18:29:28.777Z,29.27
2018-02-21T18:31:57.733Z,27.10
2018-02-21T18:34:25.857Z,28.57
2018-02-21T18:36:54.136Z,28.63
2018-02-21T18:39:22.353Z,27.53
2018-02-21T18:41:50.967Z,28.63
2018-02-21T18:44:19.177Z,27.80
2018-02-21T18:46:48.416Z,27.67
2018-02-21T18:49:19.868Z,27.93
2018-02-21T18:51:48.124Z,27.47
2018-02-21T18:54:16.947Z,27.53
2018-02-21T18:56:47.734Z,27.97
2018-02-21T18:59:17.178Z,26.53
2018-02-21T19:01:45.812Z,27.63
2018-02-21T19:04:15.432Z,26.80
2018-02-21T19:06:44.629Z,27.07
2018-02-21T19:09:13.484Z,25.80
2018-02-21T19:11:43.353Z,26.33
2018-02-21T19:14:12.074Z,26.53
2018-02-21T19:16:40.972Z,27.00
2018-02-21T19:19:10.778Z,26.27
2018-02-21T19:21:39.592Z,26.30
2018-02-21T19:24:08.107Z,26.30
2018-02-21T19:26:36.902Z,25.00
2018-02-21T19:29:06.956Z,26.03
2018-02-21T19:31:36.075Z,26.13
2018-02-21T19:34:05.305Z,25.83
2018-02-21T19:36:34.126Z,24.73
2018-02-21T19:39:02.679Z,25.07
2018-02-21T19:41:30.393Z,23.30
2018-02-21T19:43:58.731Z,24.27
2018-02-21T19:46:27.522Z,28.63
2018-02-21T19:48:56.034Z,22.33
2018-02-21T19:51:23.980Z,26.08
2018-02-21T19:53:51.765Z,22.70
2018-02-21T19:56:19.491Z,22.93
2018-02-21T19:58:48.107Z,22.07
2018-02-21T20:01:18.298Z,20.43
2018-02-21T20:03:47.281Z,20.90
2018-02-21T20:06:16.587Z,20.83
2018-02-21T20:08:45.696Z,20.47
2018-02-21T20:11:13.947Z,21.17
2018-02-21T20:13:44.245Z,19.67
2018-02-21T20:16:13.321Z,21.50
2018-02-21T20:18:43.083Z,20.10
2018-02-21T20:21:11.933Z,21.27
2018-02-21T20:23:40.000Z,20.93
2018-02-21T20:26:08.384Z,20.50
2018-02-21T20:28:37.449Z,20.77
2018-02-21T20:31:05.558Z,20.37
2018-02-21T20:33:34.090Z,19.97
2018-02-21T20:36:01.997Z,20.67
2018-02-21T20:38:29.569Z,20.00
2018-02-21T20:40:57.177Z,19.93
2018-02-21T20:43:25.620Z,20.93
2018-02-21T20:45:54.361Z,20.80
2018-02-21T20:48:22.685Z,20.10
2018-02-21T20:50:50.514Z,20.07
2018-02-21T20:53:18.129Z,20.50
2018-02-21T20:55:45.706Z,21.53
2018-02-21T20:58:15.572Z,20.77
2018-02-21T21:00:44.052Z,20.43
2018-02-21T21:03:11.959Z,21.13
2018-02-21T21:05:41.446Z,20.97
2018-02-21T21:08:13.189Z,20.67
2018-02-21T21:10:41.543Z,20.77
2018-02-21T21:13:10.030Z,20.70
2018-02-21T21:15:37.925Z,20.30
2018-02-21T21:18:07.110Z,20.40
2018-02-21T21:20:35.822Z,20.13
2018-02-21T21:23:03.740Z,20.63
2018-02-21T21:25:31.653Z,20.27
2018-02-21T21:27:59.387Z,19.93
2018-02-21T21:30:28.921Z,19.27
2018-02-21T21:32:57.290Z,20.50
2018-02-21T21:35:26.252Z,20.50
2018-02-21T21:37:54.043Z,20.63
2018-02-21T21:40:23.003Z,21.23
2018-02-21T21:42:52.063Z,19.33
2018-02-21T21:45:21.178Z,20.50
2018-02-21T21:47:49.230Z,20.97
2018-02-21T21:50:17.125Z,20.67
2018-02-21T21:52:45.162Z,19.80
2018-02-21T21:55:14.700Z,19.33
2018-02-21T21:57:42.373Z,19.97
2018-02-21T22:00:10.391Z,19.83
2018-02-21T22:02:37.947Z,20.37
2018-02-21T22:05:05.868Z,19.37
2018-02-21T22:07:34.844Z,20.10
2018-02-21T22:10:04.155Z,20.57
2018-02-21T22:12:31.765Z,20.33
2018-02-21T22:15:00.427Z,19.70
2018-02-21T22:17:28.262Z,19.40
2018-02-21T22:19:56.792Z,19.53
2018-02-21T22:22:24.673Z,19.53
2018-02-21T22:24:52.425Z,19.57
2018-02-21T22:27:20.085Z,18.73
2018-02-21T22:29:47.951Z,18.63
2018-02-21T22:32:15.700Z,19.47
2018-02-21T22:34:43.957Z,19.23
2018-02-21T22:37:11.585Z,19.03
2018-02-21T22:39:39.167Z,18.70
2018-02-21T22:42:06.818Z,19.03
2018-02-21T22:44:35.170Z,18.17
2018-02-21T22:47:03.054Z,19.23
2018-02-21T22:49:30.800Z,19.03
2018-02-21T22:51:59.427Z,18.70
2018-02-21T22:54:27.016Z,19.20
2018-02-21T22:56:55.307Z,18.77
2018-02-21T22:59:23.423Z,21.90
2018-02-21T23:01:51.010Z,19.30
2018-02-21T23:04:18.473Z,18.53
2018-02-21T23:06:45.974Z,18.23
2018-02-21T23:09:13.381Z,17.93
2018-02-21T23:11:40.837Z,17.93
2018-02-21T23:14:08.298Z,17.00
2018-02-21T23:16:35.751Z,17.10
2018-02-21T23:19:03.262Z,17.73
2018-02-21T23:21:30.710Z,17.13
2018-02-21T23:23:58.171Z,16.93
2018-02-21T23:26:25.609Z,18.03
2018-02-21T23:28:53.069Z,17.17
2018-02-21T23:31:20.514Z,17.87
2018-02-21T23:33:47.978Z,16.60
2018-02-21T23:36:15.996Z,16.97
2018-02-21T23:38:43.462Z,16.47
2018-02-21T23:41:10.920Z,16.03
2018-02-21T23:43:38.506Z,16.53
2018-02-21T23:46:06.769Z,17.23
2018-02-21T23:48:34.214Z,16.43
2018-02-21T23:51:01.682Z,15.70
2018-02-21T23:53:29.146Z,16.10
2018-02-21T23:55:56.610Z,16.67
2018-02-21T23:58:24.066Z,15.70
